sensor_id;sensor_type;location;lat;lon;timestamp;P1;durP1;ratioP1;P2;durP2;ratioP2
22111;SDS011;11222;50.872;4.312;2022-10-16T00:01:45;3.10;;;2.80;;
22111;SDS011;11222;50.872;4.312;2022-10-16T00:04:11;3.30;;;3.00;;
22111;SDS011;11222;50.872;4.312;2022-10-16T00:06:37;3.17;;;2.33;;
22111;SDS011;11222;50.872;4.312;2022-10-16T00:09:03;2.83;;;2.30;;
22111;SDS011;11222;50.872;4.312;2022-10-16T00:11:31;5.00;;;2.60;;
22111;SDS011;11222;50.872;4.312;2022-10-16T00:14:00;2.55;;;2.35;;
22111;SDS011;11222;50.872;4.312;2022-10-16T00:16:27;2.53;;;2.33;;
22111;SDS011;11222;50.872;4.312;2022-10-16T00:18:53;2.22;;;2.10;;
22111;SDS011;11222;50.872;4.312;2022-10-16T00:21:21;3.10;;;2.30;;
22111;SDS011;11222;50.872;4.312;2022-10-16T00:23:59;2.72;;;2.40;;
22111;SDS011;11222;50.872;4.312;2022-10-16T00:26:27;2.45;;;2.25;;
22111;SDS011;11222;50.872;4.312;2022-10-16T00:28:53;2.45;;;2.28;;
22111;SDS011;11222;50.872;4.312;2022-10-16T00:31:19;4.55;;;2.53;;
22111;SDS011;11222;50.872;4.312;2022-10-16T00:33:46;3.88;;;2.33;;
22111;SDS011;11222;50.872;4.312;2022-10-16T00:36:14;2.55;;;2.35;;
22111;SDS011;11222;50.872;4.312;2022-10-16T00:38:41;2.60;;;2.40;;
22111;SDS011;11222;50.872;4.312;2022-10-16T00:41:09;4.60;;;2.70;;
22111;SDS011;11222;50.872;4.312;2022-10-16T00:43:47;2.42;;;2.22;;
22111;SDS011;11222;50.872;4.312;2022-10-16T00:46:22;2.50;;;2.30;;
22111;SDS011;11222;50.872;4.312;2022-10-16T00:53:57;3.50;;;2.50;;
22111;SDS011;11222;50.872;4.312;2022-10-16T00:56:23;4.55;;;2.28;;
22111;SDS011;11222;50.872;4.312;2022-10-16T00:58:49;2.53;;;2.33;;
22111;SDS011;11222;50.872;4.312;2022-10-16T01:01:15;3.70;;;2.75;;
22111;SDS011;11222;50.872;4.312;2022-10-16T01:03:40;5.20;;;3.10;;
22111;SDS011;11222;50.872;4.312;2022-10-16T01:06:12;3.35;;;2.45;;
22111;SDS011;11222;50.872;4.312;2022-10-16T01:11:23;4.13;;;2.60;;
22111;SDS011;11222;50.872;4.312;2022-10-16T01:14:38;3.00;;;2.63;;
22111;SDS011;11222;50.872;4.312;2022-10-16T01:17:17;3.10;;;2.55;;
22111;SDS011;11222;50.872;4.312;2022-10-16T01:22:30;2.85;;;2.60;;
22111;SDS011;11222;50.872;4.312;2022-10-16T01:25:04;3.17;;;2.42;;
22111;SDS011;11222;50.872;4.312;2022-10-16T01:27:34;3.15;;;2.70;;
22111;SDS011;11222;50.872;4.312;2022-10-16T01:30:10;2.88;;;2.60;;
22111;SDS011;11222;50.872;4.312;2022-10-16T01:32:44;3.30;;;2.60;;
22111;SDS011;11222;50.872;4.312;2022-10-16T01:40:15;2.97;;;2.78;;
22111;SDS011;11222;50.872;4.312;2022-10-16T01:42:48;2.85;;;2.63;;
22111;SDS011;11222;50.872;4.312;2022-10-16T01:45:18;3.75;;;2.67;;
22111;SDS011;11222;50.872;4.312;2022-10-16T01:47:45;3.38;;;2.60;;
22111;SDS011;11222;50.872;4.312;2022-10-16T01:50:14;2.85;;;2.65;;
22111;SDS011;11222;50.872;4.312;2022-10-16T01:52:44;3.65;;;2.58;;
22111;SDS011;11222;50.872;4.312;2022-10-16T01:55:13;2.78;;;2.58;;
22111;SDS011;11222;50.872;4.312;2022-10-16T01:57:43;3.70;;;2.70;;
22111;SDS011;11222;50.872;4.312;2022-10-16T02:00:12;5.53;;;3.10;;
22111;SDS011;11222;50.872;4.312;2022-10-16T02:02:41;3.90;;;2.90;;
22111;SDS011;11222;50.872;4.312;2022-10-16T02:05:13;3.08;;;2.80;;
22111;SDS011;11222;50.872;4.312;2022-10-16T02:07:47;4.68;;;3.17;;
22111;SDS011;11222;50.872;4.312;2022-10-16T02:10:13;3.33;;;2.70;;
22111;SDS011;11222;50.872;4.312;2022-10-16T02:12:40;3.42;;;3.05;;
22111;SDS011;11222;50.872;4.312;2022-10-16T02:15:09;4.63;;;2.97;;
22111;SDS011;11222;50.872;4.312;2022-10-16T02:17:35;2.90;;;2.70;;
22111;SDS011;11222;50.872;4.312;2022-10-16T02:20:01;2.92;;;2.67;;
22111;SDS011;11222;50.872;4.312;2022-10-16T02:22:30;3.03;;;2.67;;
22111;SDS011;11222;50.872;4.312;2022-10-16T02:27:48;3.00;;;2.72;;
22111;SDS011;11222;50.872;4.312;2022-10-16T02:30:25;5.72;;;2.90;;
22111;SDS011;11222;50.872;4.312;2022-10-16T02:35:21;7.32;;;3.65;;
22111;SDS011;11222;50.872;4.312;2022-10-16T02:37:49;4.10;;;2.60;;
22111;SDS011;11222;50.872;4.312;2022-10-16T02:40:16;3.03;;;2.83;;
22111;SDS011;11222;50.872;4.312;2022-10-16T02:42:43;5.25;;;2.72;;
22111;SDS011;11222;50.872;4.312;2022-10-16T02:45:09;3.17;;;2.85;;
22111;SDS011;11222;50.872;4.312;2022-10-16T02:47:36;3.60;;;2.88;;
22111;SDS011;11222;50.872;4.312;2022-10-16T02:50:02;5.80;;;3.38;;
22111;SDS011;11222;50.872;4.312;2022-10-16T02:52:28;4.00;;;2.90;;
22111;SDS011;11222;50.872;4.312;2022-10-16T02:54:54;3.22;;;2.92;;
22111;SDS011;11222;50.872;4.312;2022-10-16T02:57:20;3.22;;;2.90;;
22111;SDS011;11222;50.872;4.312;2022-10-16T02:59:45;3.80;;;3.03;;
22111;SDS011;11222;50.872;4.312;2022-10-16T03:02:11;3.63;;;3.00;;
22111;SDS011;11222;50.872;4.312;2022-10-16T03:04:37;3.55;;;3.08;;
22111;SDS011;11222;50.872;4.312;2022-10-16T03:07:03;6.95;;;3.10;;
22111;SDS011;11222;50.872;4.312;2022-10-16T03:09:28;4.68;;;3.10;;
22111;SDS011;11222;50.872;4.312;2022-10-16T03:11:54;3.55;;;3.13;;
22111;SDS011;11222;50.872;4.312;2022-10-16T03:14:20;5.00;;;3.10;;
22111;SDS011;11222;50.872;4.312;2022-10-16T03:16:46;3.75;;;2.75;;
22111;SDS011;11222;50.872;4.312;2022-10-16T03:19:12;3.47;;;3.03;;
22111;SDS011;11222;50.872;4.312;2022-10-16T03:21:37;3.40;;;3.10;;
22111;SDS011;11222;50.872;4.312;2022-10-16T03:24:03;3.47;;;3.08;;
22111;SDS011;11222;50.872;4.312;2022-10-16T03:26:29;5.05;;;2.88;;
22111;SDS011;11222;50.872;4.312;2022-10-16T03:28:55;3.47;;;3.00;;
22111;SDS011;11222;50.872;4.312;2022-10-16T03:31:20;5.63;;;3.08;;
22111;SDS011;11222;50.872;4.312;2022-10-16T03:33:46;4.32;;;3.17;;
22111;SDS011;11222;50.872;4.312;2022-10-16T03:36:12;4.05;;;3.17;;
22111;SDS011;11222;50.872;4.312;2022-10-16T03:38:38;8.20;;;3.28;;
22111;SDS011;11222;50.872;4.312;2022-10-16T03:41:03;4.18;;;3.00;;
22111;SDS011;11222;50.872;4.312;2022-10-16T03:43:29;4.30;;;3.25;;
22111;SDS011;11222;50.872;4.312;2022-10-16T03:45:55;3.65;;;3.10;;
22111;SDS011;11222;50.872;4.312;2022-10-16T03:48:20;5.55;;;3.10;;
22111;SDS011;11222;50.872;4.312;2022-10-16T03:50:46;4.55;;;3.15;;
22111;SDS011;11222;50.872;4.312;2022-10-16T03:53:13;4.60;;;3.22;;
22111;SDS011;11222;50.872;4.312;2022-10-16T03:55:41;3.30;;;3.00;;
22111;SDS011;11222;50.872;4.312;2022-10-16T03:58:07;4.07;;;3.20;;
22111;SDS011;11222;50.872;4.312;2022-10-16T04:00:33;4.93;;;3.10;;
22111;SDS011;11222;50.872;4.312;2022-10-16T04:02:59;8.32;;;4.50;;
22111;SDS011;11222;50.872;4.312;2022-10-16T04:05:25;5.85;;;3.17;;
22111;SDS011;11222;50.872;4.312;2022-10-16T04:07:52;4.65;;;3.10;;
22111;SDS011;11222;50.872;4.312;2022-10-16T04:10:17;5.72;;;3.40;;
22111;SDS011;11222;50.872;4.312;2022-10-16T04:12:44;4.80;;;3.33;;
22111;SDS011;11222;50.872;4.312;2022-10-16T04:15:09;5.78;;;3.17;;
22111;SDS011;11222;50.872;4.312;2022-10-16T04:17:35;4.40;;;3.30;;
22111;SDS011;11222;50.872;4.312;2022-10-16T04:20:01;5.68;;;3.10;;
22111;SDS011;11222;50.872;4.312;2022-10-16T04:22:27;7.45;;;3.60;;
22111;SDS011;11222;50.872;4.312;2022-10-16T04:24:53;4.28;;;3.30;;
22111;SDS011;11222;50.872;4.312;2022-10-16T04:27:19;4.70;;;3.47;;
22111;SDS011;11222;50.872;4.312;2022-10-16T04:29:44;7.00;;;3.15;;
22111;SDS011;11222;50.872;4.312;2022-10-16T04:32:10;5.97;;;3.47;;
22111;SDS011;11222;50.872;4.312;2022-10-16T04:34:36;5.07;;;3.28;;
22111;SDS011;11222;50.872;4.312;2022-10-16T04:37:04;3.40;;;3.10;;
22111;SDS011;11222;50.872;4.312;2022-10-16T04:39:29;5.72;;;3.17;;
22111;SDS011;11222;50.872;4.312;2022-10-16T04:41:55;5.20;;;3.00;;
22111;SDS011;11222;50.872;4.312;2022-10-16T04:44:21;5.95;;;3.20;;
22111;SDS011;11222;50.872;4.312;2022-10-16T04:46:47;5.32;;;3.50;;
22111;SDS011;11222;50.872;4.312;2022-10-16T04:49:15;5.63;;;3.28;;
22111;SDS011;11222;50.872;4.312;2022-10-16T04:51:40;4.45;;;3.38;;
22111;SDS011;11222;50.872;4.312;2022-10-16T04:54:06;8.27;;;3.58;;
22111;SDS011;11222;50.872;4.312;2022-10-16T04:56:33;6.78;;;3.08;;
22111;SDS011;11222;50.872;4.312;2022-10-16T04:59:05;7.10;;;3.38;;
22111;SDS011;11222;50.872;4.312;2022-10-16T05:01:30;3.88;;;3.28;;
22111;SDS011;11222;50.872;4.312;2022-10-16T05:03:56;5.63;;;3.40;;
22111;SDS011;11222;50.872;4.312;2022-10-16T05:06:22;8.30;;;3.33;;
22111;SDS011;11222;50.872;4.312;2022-10-16T05:08:47;3.72;;;3.03;;
22111;SDS011;11222;50.872;4.312;2022-10-16T05:11:13;8.30;;;3.53;;
22111;SDS011;11222;50.872;4.312;2022-10-16T05:13:39;8.27;;;3.60;;
22111;SDS011;11222;50.872;4.312;2022-10-16T05:16:04;4.78;;;3.28;;
22111;SDS011;11222;50.872;4.312;2022-10-16T05:18:30;5.57;;;3.40;;
22111;SDS011;11222;50.872;4.312;2022-10-16T05:20:56;8.13;;;3.35;;
22111;SDS011;11222;50.872;4.312;2022-10-16T05:23:22;4.68;;;3.38;;
22111;SDS011;11222;50.872;4.312;2022-10-16T05:25:57;9.30;;;3.40;;
22111;SDS011;11222;50.872;4.312;2022-10-16T05:28:24;4.07;;;3.67;;
22111;SDS011;11222;50.872;4.312;2022-10-16T05:30:51;7.95;;;4.13;;
22111;SDS011;11222;50.872;4.312;2022-10-16T05:33:19;6.40;;;3.72;;
22111;SDS011;11222;50.872;4.312;2022-10-16T05:35:46;5.55;;;3.83;;
22111;SDS011;11222;50.872;4.312;2022-10-16T05:38:12;7.57;;;3.83;;
22111;SDS011;11222;50.872;4.312;2022-10-16T05:40:37;8.95;;;3.95;;
22111;SDS011;11222;50.872;4.312;2022-10-16T05:43:03;4.13;;;3.72;;
22111;SDS011;11222;50.872;4.312;2022-10-16T05:45:29;7.82;;;4.18;;
22111;SDS011;11222;50.872;4.312;2022-10-16T05:47:55;6.35;;;3.65;;
22111;SDS011;11222;50.872;4.312;2022-10-16T05:50:20;7.88;;;3.80;;
22111;SDS011;11222;50.872;4.312;2022-10-16T05:52:46;8.05;;;4.10;;
22111;SDS011;11222;50.872;4.312;2022-10-16T05:55:12;9.95;;;4.22;;
22111;SDS011;11222;50.872;4.312;2022-10-16T05:57:37;5.88;;;3.72;;
22111;SDS011;11222;50.872;4.312;2022-10-16T06:00:04;6.40;;;4.32;;
22111;SDS011;11222;50.872;4.312;2022-10-16T06:02:30;5.72;;;3.90;;
22111;SDS011;11222;50.872;4.312;2022-10-16T06:04:55;4.97;;;3.67;;
22111;SDS011;11222;50.872;4.312;2022-10-16T06:07:21;8.45;;;3.72;;
22111;SDS011;11222;50.872;4.312;2022-10-16T06:09:51;5.63;;;3.78;;
22111;SDS011;11222;50.872;4.312;2022-10-16T06:12:18;9.82;;;4.00;;
22111;SDS011;11222;50.872;4.312;2022-10-16T06:14:44;9.40;;;3.83;;
22111;SDS011;11222;50.872;4.312;2022-10-16T06:17:14;6.47;;;3.97;;
22111;SDS011;11222;50.872;4.312;2022-10-16T06:19:40;8.77;;;3.85;;
22111;SDS011;11222;50.872;4.312;2022-10-16T06:22:06;9.50;;;3.95;;
22111;SDS011;11222;50.872;4.312;2022-10-16T06:24:32;8.15;;;4.20;;
22111;SDS011;11222;50.872;4.312;2022-10-16T06:26:58;8.85;;;3.75;;
22111;SDS011;11222;50.872;4.312;2022-10-16T06:29:23;9.65;;;3.97;;
22111;SDS011;11222;50.872;4.312;2022-10-16T06:31:49;8.02;;;3.72;;
22111;SDS011;11222;50.872;4.312;2022-10-16T06:34:14;6.70;;;4.07;;
22111;SDS011;11222;50.872;4.312;2022-10-16T06:36:40;4.85;;;3.78;;
22111;SDS011;11222;50.872;4.312;2022-10-16T06:39:06;6.95;;;3.70;;
22111;SDS011;11222;50.872;4.312;2022-10-16T06:41:32;5.13;;;4.05;;
22111;SDS011;11222;50.872;4.312;2022-10-16T06:43:58;6.47;;;3.85;;
22111;SDS011;11222;50.872;4.312;2022-10-16T06:46:24;6.72;;;4.05;;
22111;SDS011;11222;50.872;4.312;2022-10-16T06:48:50;8.80;;;4.03;;
22111;SDS011;11222;50.872;4.312;2022-10-16T06:51:18;5.85;;;3.63;;
22111;SDS011;11222;50.872;4.312;2022-10-16T06:53:49;4.63;;;3.67;;
22111;SDS011;11222;50.872;4.312;2022-10-16T06:56:17;9.05;;;4.43;;
22111;SDS011;11222;50.872;4.312;2022-10-16T06:58:44;4.93;;;3.38;;
22111;SDS011;11222;50.872;4.312;2022-10-16T07:01:11;6.13;;;3.60;;
22111;SDS011;11222;50.872;4.312;2022-10-16T07:03:39;5.20;;;3.75;;
22111;SDS011;11222;50.872;4.312;2022-10-16T07:06:07;5.85;;;3.55;;
22111;SDS011;11222;50.872;4.312;2022-10-16T07:08:35;6.28;;;3.90;;
22111;SDS011;11222;50.872;4.312;2022-10-16T07:11:04;7.05;;;3.53;;
22111;SDS011;11222;50.872;4.312;2022-10-16T07:13:34;6.70;;;3.42;;
22111;SDS011;11222;50.872;4.312;2022-10-16T07:16:08;5.50;;;3.55;;
22111;SDS011;11222;50.872;4.312;2022-10-16T07:18:35;4.93;;;3.53;;
22111;SDS011;11222;50.872;4.312;2022-10-16T07:21:09;5.97;;;3.78;;
22111;SDS011;11222;50.872;4.312;2022-10-16T07:23:36;8.43;;;3.65;;
22111;SDS011;11222;50.872;4.312;2022-10-16T07:26:03;7.03;;;3.50;;
22111;SDS011;11222;50.872;4.312;2022-10-16T07:28:29;5.70;;;4.25;;
22111;SDS011;11222;50.872;4.312;2022-10-16T07:31:00;5.35;;;3.75;;
22111;SDS011;11222;50.872;4.312;2022-10-16T07:33:28;4.95;;;3.15;;
22111;SDS011;11222;50.872;4.312;2022-10-16T07:35:55;6.45;;;3.53;;
22111;SDS011;11222;50.872;4.312;2022-10-16T07:38:20;4.75;;;3.33;;
22111;SDS011;11222;50.872;4.312;2022-10-16T07:40:47;5.43;;;3.47;;
22111;SDS011;11222;50.872;4.312;2022-10-16T07:43:14;6.70;;;5.60;;
22111;SDS011;11222;50.872;4.312;2022-10-16T07:45:47;9.02;;;3.67;;
22111;SDS011;11222;50.872;4.312;2022-10-16T07:48:16;4.95;;;3.80;;
22111;SDS011;11222;50.872;4.312;2022-10-16T07:50:43;5.15;;;3.60;;
22111;SDS011;11222;50.872;4.312;2022-10-16T07:53:09;4.65;;;3.58;;
22111;SDS011;11222;50.872;4.312;2022-10-16T07:55:36;5.00;;;3.50;;
22111;SDS011;11222;50.872;4.312;2022-10-16T07:58:02;8.68;;;3.60;;
22111;SDS011;11222;50.872;4.312;2022-10-16T08:00:27;4.20;;;3.33;;
22111;SDS011;11222;50.872;4.312;2022-10-16T08:02:53;4.43;;;3.30;;
22111;SDS011;11222;50.872;4.312;2022-10-16T08:05:19;5.60;;;3.83;;
22111;SDS011;11222;50.872;4.312;2022-10-16T08:07:48;5.97;;;3.53;;
22111;SDS011;11222;50.872;4.312;2022-10-16T08:10:16;6.13;;;3.83;;
22111;SDS011;11222;50.872;4.312;2022-10-16T08:12:42;8.63;;;3.90;;
22111;SDS011;11222;50.872;4.312;2022-10-16T08:15:08;7.00;;;3.80;;
22111;SDS011;11222;50.872;4.312;2022-10-16T08:17:34;6.63;;;3.30;;
22111;SDS011;11222;50.872;4.312;2022-10-16T08:20:00;5.10;;;3.55;;
22111;SDS011;11222;50.872;4.312;2022-10-16T08:22:26;8.13;;;3.53;;
22111;SDS011;11222;50.872;4.312;2022-10-16T08:24:52;5.35;;;3.58;;
22111;SDS011;11222;50.872;4.312;2022-10-16T08:27:18;6.55;;;3.67;;
22111;SDS011;11222;50.872;4.312;2022-10-16T08:29:43;6.53;;;3.92;;
22111;SDS011;11222;50.872;4.312;2022-10-16T08:32:09;6.75;;;3.35;;
22111;SDS011;11222;50.872;4.312;2022-10-16T08:34:35;6.13;;;3.30;;
22111;SDS011;11222;50.872;4.312;2022-10-16T08:37:00;7.38;;;3.50;;
22111;SDS011;11222;50.872;4.312;2022-10-16T08:39:27;6.53;;;3.55;;
22111;SDS011;11222;50.872;4.312;2022-10-16T08:47:49;5.57;;;3.17;;
22111;SDS011;11222;50.872;4.312;2022-10-16T08:50:38;5.82;;;3.10;;
22111;SDS011;11222;50.872;4.312;2022-10-16T08:53:05;6.65;;;3.47;;
22111;SDS011;11222;50.872;4.312;2022-10-16T08:55:41;5.53;;;3.08;;
22111;SDS011;11222;50.872;4.312;2022-10-16T08:58:22;5.22;;;3.05;;
22111;SDS011;11222;50.872;4.312;2022-10-16T09:00:55;6.30;;;3.13;;
22111;SDS011;11222;50.872;4.312;2022-10-16T09:16:43;6.32;;;2.90;;
22111;SDS011;11222;50.872;4.312;2022-10-16T09:21:44;4.97;;;3.00;;
22111;SDS011;11222;50.872;4.312;2022-10-16T09:24:20;9.25;;;2.85;;
22111;SDS011;11222;50.872;4.312;2022-10-16T09:26:49;5.60;;;3.05;;
22111;SDS011;11222;50.872;4.312;2022-10-16T09:29:19;5.28;;;2.80;;
22111;SDS011;11222;50.872;4.312;2022-10-16T09:31:46;5.28;;;2.67;;
22111;SDS011;11222;50.872;4.312;2022-10-16T09:34:17;6.13;;;2.60;;
22111;SDS011;11222;50.872;4.312;2022-10-16T09:36:55;8.85;;;3.03;;
22111;SDS011;11222;50.872;4.312;2022-10-16T09:39:22;6.43;;;3.00;;
22111;SDS011;11222;50.872;4.312;2022-10-16T09:41:48;4.18;;;2.85;;
22111;SDS011;11222;50.872;4.312;2022-10-16T09:44:22;7.13;;;2.83;;
22111;SDS011;11222;50.872;4.312;2022-10-16T09:46:48;4.57;;;2.85;;
22111;SDS011;11222;50.872;4.312;2022-10-16T09:49:24;8.00;;;2.97;;
22111;SDS011;11222;50.872;4.312;2022-10-16T09:52:02;4.45;;;2.85;;
22111;SDS011;11222;50.872;4.312;2022-10-16T09:54:36;3.43;;;2.23;;
22111;SDS011;11222;50.872;4.312;2022-10-16T09:57:05;6.97;;;2.45;;
22111;SDS011;11222;50.872;4.312;2022-10-16T09:59:32;6.25;;;2.53;;
22111;SDS011;11222;50.872;4.312;2022-10-16T10:02:01;5.72;;;2.97;;
22111;SDS011;11222;50.872;4.312;2022-10-16T10:04:37;11.13;;;2.78;;
22111;SDS011;11222;50.872;4.312;2022-10-16T10:07:18;7.63;;;2.90;;
22111;SDS011;11222;50.872;4.312;2022-10-16T10:09:48;6.35;;;2.88;;
22111;SDS011;11222;50.872;4.312;2022-10-16T10:12:27;8.68;;;2.67;;
22111;SDS011;11222;50.872;4.312;2022-10-16T10:15:06;5.20;;;2.45;;
22111;SDS011;11222;50.872;4.312;2022-10-16T10:17:44;5.07;;;2.58;;
22111;SDS011;11222;50.872;4.312;2022-10-16T10:20:23;4.55;;;2.38;;
22111;SDS011;11222;50.872;4.312;2022-10-16T10:22:59;5.60;;;2.47;;
22111;SDS011;11222;50.872;4.312;2022-10-16T10:28:15;4.85;;;2.72;;
22111;SDS011;11222;50.872;4.312;2022-10-16T10:33:47;4.70;;;2.85;;
22111;SDS011;11222;50.872;4.312;2022-10-16T10:39:07;9.38;;;3.08;;
22111;SDS011;11222;50.872;4.312;2022-10-16T10:44:23;7.65;;;3.17;;
22111;SDS011;11222;50.872;4.312;2022-10-16T11:01:13;3.88;;;2.60;;
22111;SDS011;11222;50.872;4.312;2022-10-16T11:12:25;4.13;;;2.50;;
22111;SDS011;11222;50.872;4.312;2022-10-16T11:20:45;4.13;;;2.17;;
22111;SDS011;11222;50.872;4.312;2022-10-16T11:23:36;8.40;;;4.85;;
22111;SDS011;11222;50.872;4.312;2022-10-16T11:26:04;7.05;;;2.75;;
22111;SDS011;11222;50.872;4.312;2022-10-16T11:28:42;7.63;;;2.65;;
22111;SDS011;11222;50.872;4.312;2022-10-16T11:31:14;3.92;;;2.33;;
22111;SDS011;11222;50.872;4.312;2022-10-16T11:36:41;8.52;;;2.80;;
22111;SDS011;11222;50.872;4.312;2022-10-16T11:39:26;6.80;;;2.60;;
22111;SDS011;11222;50.872;4.312;2022-10-16T11:47:27;7.13;;;2.40;;
22111;SDS011;11222;50.872;4.312;2022-10-16T11:50:22;4.72;;;3.03;;
22111;SDS011;11222;50.872;4.312;2022-10-16T11:55:37;5.45;;;2.30;;
22111;SDS011;11222;50.872;4.312;2022-10-16T12:00:59;4.78;;;2.50;;
22111;SDS011;11222;50.872;4.312;2022-10-16T12:03:30;6.03;;;2.50;;
22111;SDS011;11222;50.872;4.312;2022-10-16T12:09:15;3.95;;;2.30;;
22111;SDS011;11222;50.872;4.312;2022-10-16T12:11:57;4.28;;;2.40;;
22111;SDS011;11222;50.872;4.312;2022-10-16T12:17:27;3.70;;;2.30;;
22111;SDS011;11222;50.872;4.312;2022-10-16T12:20:24;6.22;;;2.78;;
22111;SDS011;11222;50.872;4.312;2022-10-16T12:22:54;3.58;;;2.20;;
22111;SDS011;11222;50.872;4.312;2022-10-16T12:25:37;5.05;;;2.60;;
22111;SDS011;11222;50.872;4.312;2022-10-16T12:30:40;5.45;;;2.50;;
22111;SDS011;11222;50.872;4.312;2022-10-16T12:35:49;4.22;;;2.80;;
22111;SDS011;11222;50.872;4.312;2022-10-16T12:40:56;4.15;;;3.10;;
22111;SDS011;11222;50.872;4.312;2022-10-16T12:43:35;5.32;;;3.40;;
22111;SDS011;11222;50.872;4.312;2022-10-16T12:49:19;4.18;;;2.20;;
22111;SDS011;11222;50.872;4.312;2022-10-16T12:51:57;3.40;;;2.10;;
22111;SDS011;11222;50.872;4.312;2022-10-16T12:54:27;4.70;;;2.20;;
22111;SDS011;11222;50.872;4.312;2022-10-16T13:13:49;5.95;;;2.38;;
22111;SDS011;11222;50.872;4.312;2022-10-16T13:16:36;4.45;;;2.85;;
22111;SDS011;11222;50.872;4.312;2022-10-16T13:21:58;6.07;;;2.60;;
22111;SDS011;11222;50.872;4.312;2022-10-16T13:32:48;7.07;;;2.63;;
22111;SDS011;11222;50.872;4.312;2022-10-16T13:37:49;4.35;;;2.50;;
22111;SDS011;11222;50.872;4.312;2022-10-16T13:40:19;3.70;;;2.42;;
22111;SDS011;11222;50.872;4.312;2022-10-16T13:42:47;4.85;;;2.83;;
22111;SDS011;11222;50.872;4.312;2022-10-16T13:45:17;4.32;;;2.80;;
22111;SDS011;11222;50.872;4.312;2022-10-16T13:47:47;2.88;;;2.42;;
22111;SDS011;11222;50.872;4.312;2022-10-16T13:50:14;4.65;;;2.92;;
22111;SDS011;11222;50.872;4.312;2022-10-16T13:52:42;3.63;;;2.78;;
22111;SDS011;11222;50.872;4.312;2022-10-16T13:55:12;6.85;;;2.78;;
22111;SDS011;11222;50.872;4.312;2022-10-16T13:57:43;3.53;;;2.67;;
22111;SDS011;11222;50.872;4.312;2022-10-16T14:02:45;4.38;;;2.60;;
22111;SDS011;11222;50.872;4.312;2022-10-16T14:05:19;6.13;;;2.88;;
22111;SDS011;11222;50.872;4.312;2022-10-16T14:07:47;5.40;;;2.80;;
22111;SDS011;11222;50.872;4.312;2022-10-16T14:10:26;6.80;;;3.17;;
22111;SDS011;11222;50.872;4.312;2022-10-16T14:12:58;3.65;;;2.70;;
22111;SDS011;11222;50.872;4.312;2022-10-16T14:15:27;6.35;;;3.10;;
22111;SDS011;11222;50.872;4.312;2022-10-16T14:17:54;5.82;;;3.38;;
22111;SDS011;11222;50.872;4.312;2022-10-16T14:20:20;4.53;;;2.78;;
22111;SDS011;11222;50.872;4.312;2022-10-16T14:23:03;3.33;;;2.28;;
22111;SDS011;11222;50.872;4.312;2022-10-16T14:25:43;5.13;;;2.45;;
22111;SDS011;11222;50.872;4.312;2022-10-16T14:28:20;6.97;;;3.38;;
22111;SDS011;11222;50.872;4.312;2022-10-16T14:31:00;3.05;;;2.20;;
22111;SDS011;11222;50.872;4.312;2022-10-16T14:33:40;5.72;;;2.95;;
22111;SDS011;11222;50.872;4.312;2022-10-16T14:36:15;5.57;;;2.78;;
22111;SDS011;11222;50.872;4.312;2022-10-16T14:41:42;4.35;;;2.70;;
22111;SDS011;11222;50.872;4.312;2022-10-16T14:44:10;4.45;;;2.30;;
22111;SDS011;11222;50.872;4.312;2022-10-16T14:46:38;5.28;;;2.80;;
22111;SDS011;11222;50.872;4.312;2022-10-16T14:51:38;5.25;;;2.60;;
22111;SDS011;11222;50.872;4.312;2022-10-16T14:54:09;5.85;;;2.80;;
22111;SDS011;11222;50.872;4.312;2022-10-16T14:56:45;6.03;;;2.90;;
22111;SDS011;11222;50.872;4.312;2022-10-16T14:59:32;4.60;;;3.20;;
22111;SDS011;11222;50.872;4.312;2022-10-16T15:04:49;3.88;;;3.15;;
22111;SDS011;11222;50.872;4.312;2022-10-16T15:07:15;4.95;;;2.60;;
22111;SDS011;11222;50.872;4.312;2022-10-16T15:09:42;3.92;;;2.92;;
22111;SDS011;11222;50.872;4.312;2022-10-16T15:12:08;5.53;;;2.53;;
22111;SDS011;11222;50.872;4.312;2022-10-16T15:14:33;4.25;;;2.80;;
22111;SDS011;11222;50.872;4.312;2022-10-16T15:16:59;6.18;;;2.65;;
22111;SDS011;11222;50.872;4.312;2022-10-16T15:19:24;5.93;;;3.30;;
22111;SDS011;11222;50.872;4.312;2022-10-16T15:21:50;4.32;;;2.90;;
22111;SDS011;11222;50.872;4.312;2022-10-16T15:24:17;5.80;;;2.90;;
22111;SDS011;11222;50.872;4.312;2022-10-16T15:26:43;7.20;;;3.03;;
22111;SDS011;11222;50.872;4.312;2022-10-16T15:29:11;6.20;;;2.95;;
22111;SDS011;11222;50.872;4.312;2022-10-16T15:31:37;6.80;;;3.22;;
22111;SDS011;11222;50.872;4.312;2022-10-16T15:34:03;5.05;;;2.95;;
22111;SDS011;11222;50.872;4.312;2022-10-16T15:36:34;4.53;;;3.15;;
22111;SDS011;11222;50.872;4.312;2022-10-16T15:39:02;6.18;;;3.10;;
22111;SDS011;11222;50.872;4.312;2022-10-16T15:41:29;11.05;;;6.97;;
22111;SDS011;11222;50.872;4.312;2022-10-16T15:43:55;6.30;;;3.53;;
22111;SDS011;11222;50.872;4.312;2022-10-16T15:46:21;6.28;;;3.72;;
22111;SDS011;11222;50.872;4.312;2022-10-16T15:48:49;5.70;;;3.35;;
22111;SDS011;11222;50.872;4.312;2022-10-16T15:51:16;4.80;;;2.70;;
22111;SDS011;11222;50.872;4.312;2022-10-16T15:53:43;5.43;;;3.53;;
22111;SDS011;11222;50.872;4.312;2022-10-16T15:56:11;5.03;;;3.20;;
22111;SDS011;11222;50.872;4.312;2022-10-16T15:58:37;5.97;;;3.30;;
22111;SDS011;11222;50.872;4.312;2022-10-16T16:01:03;5.10;;;3.47;;
22111;SDS011;11222;50.872;4.312;2022-10-16T16:03:30;5.03;;;3.30;;
22111;SDS011;11222;50.872;4.312;2022-10-16T16:05:57;6.93;;;3.50;;
22111;SDS011;11222;50.872;4.312;2022-10-16T16:08:28;6.20;;;3.40;;
22111;SDS011;11222;50.872;4.312;2022-10-16T16:11:01;4.70;;;3.78;;
22111;SDS011;11222;50.872;4.312;2022-10-16T16:13:29;6.32;;;3.97;;
22111;SDS011;11222;50.872;4.312;2022-10-16T16:15:55;8.75;;;4.00;;
22111;SDS011;11222;50.872;4.312;2022-10-16T16:18:21;5.95;;;3.92;;
22111;SDS011;11222;50.872;4.312;2022-10-16T16:20:48;7.38;;;4.03;;
22111;SDS011;11222;50.872;4.312;2022-10-16T16:23:15;7.85;;;4.05;;
22111;SDS011;11222;50.872;4.312;2022-10-16T16:25:41;6.35;;;4.32;;
22111;SDS011;11222;50.872;4.312;2022-10-16T16:28:07;5.70;;;4.47;;
22111;SDS011;11222;50.872;4.312;2022-10-16T16:30:35;9.32;;;5.28;;
22111;SDS011;11222;50.872;4.312;2022-10-16T16:33:02;6.25;;;5.10;;
22111;SDS011;11222;50.872;4.312;2022-10-16T16:35:28;9.88;;;6.20;;
22111;SDS011;11222;50.872;4.312;2022-10-16T16:37:54;8.45;;;5.70;;
22111;SDS011;11222;50.872;4.312;2022-10-16T16:40:19;7.10;;;5.10;;
22111;SDS011;11222;50.872;4.312;2022-10-16T16:42:49;8.15;;;5.75;;
22111;SDS011;11222;50.872;4.312;2022-10-16T16:45:15;8.65;;;6.00;;
22111;SDS011;11222;50.872;4.312;2022-10-16T16:47:41;7.65;;;5.95;;
22111;SDS011;11222;50.872;4.312;2022-10-16T16:50:06;6.75;;;5.85;;
22111;SDS011;11222;50.872;4.312;2022-10-16T16:52:33;7.97;;;5.93;;
22111;SDS011;11222;50.872;4.312;2022-10-16T16:54:59;8.65;;;5.93;;
22111;SDS011;11222;50.872;4.312;2022-10-16T16:57:26;10.18;;;7.38;;
22111;SDS011;11222;50.872;4.312;2022-10-16T16:59:51;9.05;;;7.22;;
22111;SDS011;11222;50.872;4.312;2022-10-16T17:02:17;10.40;;;8.70;;
22111;SDS011;11222;50.872;4.312;2022-10-16T17:04:43;12.02;;;6.28;;
22111;SDS011;11222;50.872;4.312;2022-10-16T17:07:09;6.85;;;6.07;;
22111;SDS011;11222;50.872;4.312;2022-10-16T17:09:34;9.07;;;6.95;;
22111;SDS011;11222;50.872;4.312;2022-10-16T17:12:00;11.18;;;6.82;;
22111;SDS011;11222;50.872;4.312;2022-10-16T17:14:26;9.40;;;6.72;;
22111;SDS011;11222;50.872;4.312;2022-10-16T17:16:52;8.63;;;7.05;;
22111;SDS011;11222;50.872;4.312;2022-10-16T17:19:18;11.38;;;8.38;;
22111;SDS011;11222;50.872;4.312;2022-10-16T17:21:47;11.40;;;7.95;;
22111;SDS011;11222;50.872;4.312;2022-10-16T17:24:14;13.02;;;9.27;;
22111;SDS011;11222;50.872;4.312;2022-10-16T17:26:40;13.32;;;8.45;;
22111;SDS011;11222;50.872;4.312;2022-10-16T17:29:09;11.13;;;8.10;;
22111;SDS011;11222;50.872;4.312;2022-10-16T17:31:36;10.50;;;8.25;;
22111;SDS011;11222;50.872;4.312;2022-10-16T17:34:02;9.88;;;8.25;;